sensor_id;sensor_type;location;lat;lon;timestamp;P1;durP1;ratioP1;P2;durP2;ratioP2
36815;SDS011;71982;52.294;6.760;2023-11-19T13:28:59;31.58;;;5.70;;
36815;SDS011;71982;52.294;6.760;2023-11-19T13:31:47;27.50;;;4.97;;
36815;SDS011;71982;52.294;6.760;2023-11-19T13:34:23;36.13;;;6.50;;
36815;SDS011;71982;52.294;6.760;2023-11-19T13:36:50;39.35;;;6.07;;
36815;SDS011;71982;52.294;6.760;2023-11-19T13:39:18;33.42;;;6.28;;
36815;SDS011;71982;52.294;6.760;2023-11-19T13:41:54;34.60;;;5.43;;
36815;SDS011;71982;52.294;6.760;2023-11-19T13:44:24;36.40;;;6.18;;
36815;SDS011;71982;52.294;6.760;2023-11-19T13:46:51;37.65;;;5.97;;
36815;SDS011;71982;52.294;6.760;2023-11-19T13:49:21;32.03;;;5.82;;
36815;SDS011;71982;52.294;6.760;2023-11-19T13:51:59;36.40;;;6.32;;
36815;SDS011;71982;52.294;6.760;2023-11-19T13:54:30;22.45;;;4.70;;
36815;SDS011;71982;52.294;6.760;2023-11-19T13:57:02;34.30;;;6.50;;
36815;SDS011;71982;52.294;6.760;2023-11-19T13:59:38;36.88;;;10.57;;
36815;SDS011;71982;52.294;6.760;2023-11-19T14:02:10;27.70;;;6.40;;
36815;SDS011;71982;52.294;6.760;2023-11-19T14:04:37;29.52;;;5.03;;
36815;SDS011;71982;52.294;6.760;2023-11-19T14:07:07;29.52;;;5.03;;
36815;SDS011;71982;52.294;6.760;2023-11-19T14:09:36;31.38;;;4.78;;
36815;SDS011;71982;52.294;6.760;2023-11-19T14:12:07;30.17;;;5.35;;
36815;SDS011;71982;52.294;6.760;2023-11-19T14:14:36;32.10;;;4.63;;
36815;SDS011;71982;52.294;6.760;2023-11-19T14:17:07;30.08;;;5.30;;
36815;SDS011;71982;52.294;6.760;2023-11-19T14:19:35;30.90;;;4.88;;
36815;SDS011;71982;52.294;6.760;2023-11-19T14:22:03;34.40;;;5.95;;
36815;SDS011;71982;52.294;6.760;2023-11-19T14:24:30;29.05;;;5.25;;
36815;SDS011;71982;52.294;6.760;2023-11-19T14:26:57;32.30;;;5.85;;
36815;SDS011;71982;52.294;6.760;2023-11-19T14:29:26;28.08;;;5.53;;
36815;SDS011;71982;52.294;6.760;2023-11-19T14:31:57;33.85;;;5.53;;
36815;SDS011;71982;52.294;6.760;2023-11-19T14:34:24;33.50;;;4.30;;
36815;SDS011;71982;52.294;6.760;2023-11-19T14:36:52;23.73;;;4.70;;
36815;SDS011;71982;52.294;6.760;2023-11-19T14:39:26;23.77;;;4.72;;
36815;SDS011;71982;52.294;6.760;2023-11-19T14:41:54;33.37;;;6.23;;
36815;SDS011;71982;52.294;6.760;2023-11-19T14:44:26;34.03;;;5.80;;
36815;SDS011;71982;52.294;6.760;2023-11-19T14:46:54;28.42;;;5.03;;
36815;SDS011;71982;52.294;6.760;2023-11-19T14:49:25;25.02;;;4.13;;
36815;SDS011;71982;52.294;6.760;2023-11-19T14:51:52;28.95;;;4.97;;
36815;SDS011;71982;52.294;6.760;2023-11-19T14:54:19;28.02;;;5.32;;
36815;SDS011;71982;52.294;6.760;2023-11-19T14:56:46;32.17;;;5.55;;
36815;SDS011;71982;52.294;6.760;2023-11-19T14:59:14;32.33;;;5.55;;
36815;SDS011;71982;52.294;6.760;2023-11-19T15:01:41;38.83;;;5.55;;
36815;SDS011;71982;52.294;6.760;2023-11-19T15:04:12;30.77;;;5.65;;
36815;SDS011;71982;52.294;6.760;2023-11-19T15:06:44;39.35;;;6.38;;
36815;SDS011;71982;52.294;6.760;2023-11-19T15:09:14;29.17;;;5.30;;
36815;SDS011;71982;52.294;6.760;2023-11-19T15:11:44;43.70;;;7.40;;
36815;SDS011;71982;52.294;6.760;2023-11-19T15:14:24;37.15;;;6.03;;
36815;SDS011;71982;52.294;6.760;2023-11-19T15:17:04;37.03;;;6.15;;
36815;SDS011;71982;52.294;6.760;2023-11-19T15:19:33;37.95;;;6.63;;
36815;SDS011;71982;52.294;6.760;2023-11-19T15:22:05;35.05;;;6.85;;
36815;SDS011;71982;52.294;6.760;2023-11-19T15:24:36;43.55;;;6.80;;
36815;SDS011;71982;52.294;6.760;2023-11-19T15:27:07;35.10;;;8.38;;
36815;SDS011;71982;52.294;6.760;2023-11-19T15:29:49;37.00;;;6.85;;
36815;SDS011;71982;52.294;6.760;2023-11-19T15:32:16;41.20;;;7.95;;
36815;SDS011;71982;52.294;6.760;2023-11-19T15:34:48;29.90;;;5.43;;
36815;SDS011;71982;52.294;6.760;2023-11-19T15:37:17;36.25;;;6.03;;
36815;SDS011;71982;52.294;6.760;2023-11-19T15:39:45;36.50;;;6.60;;
36815;SDS011;71982;52.294;6.760;2023-11-19T15:42:21;35.72;;;8.15;;
36815;SDS011;71982;52.294;6.760;2023-11-19T15:44:49;36.28;;;6.47;;
36815;SDS011;71982;52.294;6.760;2023-11-19T15:47:16;46.47;;;7.95;;
36815;SDS011;71982;52.294;6.760;2023-11-19T15:49:44;35.03;;;8.38;;
36815;SDS011;71982;52.294;6.760;2023-11-19T15:52:23;38.45;;;6.38;;
36815;SDS011;71982;52.294;6.760;2023-11-19T15:54:51;43.28;;;8.77;;
36815;SDS011;71982;52.294;6.760;2023-11-19T15:57:18;31.27;;;7.13;;
36815;SDS011;71982;52.294;6.760;2023-11-19T15:59:46;33.65;;;6.93;;
36815;SDS011;71982;52.294;6.760;2023-11-19T16:02:13;32.83;;;6.68;;
36815;SDS011;71982;52.294;6.760;2023-11-19T16:04:40;28.60;;;7.30;;
36815;SDS011;71982;52.294;6.760;2023-11-19T16:07:12;40.15;;;7.25;;
36815;SDS011;71982;52.294;6.760;2023-11-19T16:09:52;48.35;;;8.73;;
36815;SDS011;71982;52.294;6.760;2023-11-19T16:12:29;33.35;;;7.50;;
36815;SDS011;71982;52.294;6.760;2023-11-19T16:15:11;34.85;;;6.45;;
36815;SDS011;71982;52.294;6.760;2023-11-19T16:17:47;46.88;;;7.55;;
36815;SDS011;71982;52.294;6.760;2023-11-19T16:21:00;51.88;;;8.20;;
36815;SDS011;71982;52.294;6.760;2023-11-19T16:23:27;40.78;;;7.40;;
36815;SDS011;71982;52.294;6.760;2023-11-19T16:26:08;45.75;;;7.35;;
36815;SDS011;71982;52.294;6.760;2023-11-19T16:32:14;42.45;;;7.55;;
36815;SDS011;71982;52.294;6.760;2023-11-19T16:35:09;45.42;;;6.85;;
36815;SDS011;71982;52.294;6.760;2023-11-19T16:37:51;41.75;;;8.88;;
36815;SDS011;71982;52.294;6.760;2023-11-19T16:40:18;54.75;;;8.07;;
36815;SDS011;71982;52.294;6.760;2023-11-19T16:42:46;50.65;;;8.18;;
36815;SDS011;71982;52.294;6.760;2023-11-19T16:45:15;58.78;;;8.48;;
36815;SDS011;71982;52.294;6.760;2023-11-19T16:47:53;42.20;;;8.85;;
36815;SDS011;71982;52.294;6.760;2023-11-19T16:50:24;40.92;;;7.05;;
36815;SDS011;71982;52.294;6.760;2023-11-19T16:52:53;35.92;;;6.18;;
36815;SDS011;71982;52.294;6.760;2023-11-19T16:55:20;41.78;;;6.80;;
36815;SDS011;71982;52.294;6.760;2023-11-19T16:57:48;50.95;;;7.25;;
36815;SDS011;71982;52.294;6.760;2023-11-19T17:00:15;38.90;;;6.18;;
36815;SDS011;71982;52.294;6.760;2023-11-19T17:02:45;53.95;;;7.22;;
36815;SDS011;71982;52.294;6.760;2023-11-19T17:05:16;49.15;;;7.75;;
36815;SDS011;71982;52.294;6.760;2023-11-19T17:07:42;42.90;;;7.05;;
36815;SDS011;71982;52.294;6.760;2023-11-19T17:10:12;45.17;;;6.78;;
36815;SDS011;71982;52.294;6.760;2023-11-19T17:12:39;39.90;;;6.55;;
36815;SDS011;71982;52.294;6.760;2023-11-19T17:15:14;38.55;;;5.72;;
36815;SDS011;71982;52.294;6.760;2023-11-19T17:17:41;43.20;;;7.43;;
36815;SDS011;71982;52.294;6.760;2023-11-19T17:20:09;28.70;;;5.13;;
36815;SDS011;71982;52.294;6.760;2023-11-19T17:22:39;35.45;;;6.65;;
36815;SDS011;71982;52.294;6.760;2023-11-19T17:25:10;29.35;;;6.13;;
36815;SDS011;71982;52.294;6.760;2023-11-19T17:27:37;37.55;;;6.35;;
36815;SDS011;71982;52.294;6.760;2023-11-19T17:30:10;33.55;;;6.28;;
36815;SDS011;71982;52.294;6.760;2023-11-19T17:32:38;31.27;;;5.47;;
36815;SDS011;71982;52.294;6.760;2023-11-19T17:35:05;33.33;;;6.32;;
36815;SDS011;71982;52.294;6.760;2023-11-19T17:37:33;27.33;;;5.28;;
36815;SDS011;71982;52.294;6.760;2023-11-19T17:40:03;29.23;;;5.03;;
36815;SDS011;71982;52.294;6.760;2023-11-19T17:42:32;32.92;;;6.28;;
36815;SDS011;71982;52.294;6.760;2023-11-19T17:44:59;36.65;;;6.22;;
36815;SDS011;71982;52.294;6.760;2023-11-19T17:47:28;28.05;;;6.25;;
36815;SDS011;71982;52.294;6.760;2023-11-19T17:49:57;27.63;;;5.93;;
36815;SDS011;71982;52.294;6.760;2023-11-19T17:52:24;30.70;;;5.93;;
36815;SDS011;71982;52.294;6.760;2023-11-19T17:54:51;32.03;;;5.00;;
36815;SDS011;71982;52.294;6.760;2023-11-19T17:57:21;27.17;;;5.30;;
36815;SDS011;71982;52.294;6.760;2023-11-19T17:59:49;32.65;;;5.72;;
36815;SDS011;71982;52.294;6.760;2023-11-19T18:02:17;29.23;;;6.03;;
36815;SDS011;71982;52.294;6.760;2023-11-19T18:04:46;37.45;;;6.43;;
36815;SDS011;71982;52.294;6.760;2023-11-19T18:07:13;29.25;;;6.05;;
36815;SDS011;71982;52.294;6.760;2023-11-19T18:09:41;35.92;;;6.70;;
36815;SDS011;71982;52.294;6.760;2023-11-19T18:12:08;37.03;;;7.22;;
36815;SDS011;71982;52.294;6.760;2023-11-19T18:17:18;35.63;;;6.15;;
36815;SDS011;71982;52.294;6.760;2023-11-19T18:19:47;30.20;;;6.88;;
36815;SDS011;71982;52.294;6.760;2023-11-19T18:22:18;40.40;;;6.97;;
36815;SDS011;71982;52.294;6.760;2023-11-19T18:24:48;120.95;;;51.85;;
36815;SDS011;71982;52.294;6.760;2023-11-19T18:27:29;93.18;;;32.35;;
36815;SDS011;71982;52.294;6.760;2023-11-19T18:30:04;95.30;;;37.00;;
36815;SDS011;71982;52.294;6.760;2023-11-19T18:32:37;29.23;;;9.13;;
36815;SDS011;71982;52.294;6.760;2023-11-19T18:35:27;28.20;;;7.80;;
36815;SDS011;71982;52.294;6.760;2023-11-19T18:38:01;32.47;;;9.20;;
36815;SDS011;71982;52.294;6.760;2023-11-19T18:42:59;24.13;;;7.97;;
36815;SDS011;71982;52.294;6.760;2023-11-19T18:45:40;24.35;;;8.07;;
36815;SDS011;71982;52.294;6.760;2023-11-19T18:48:32;25.92;;;8.20;;
36815;SDS011;71982;52.294;6.760;2023-11-19T18:54:10;26.45;;;9.10;;
36815;SDS011;71982;52.294;6.760;2023-11-19T18:56:46;28.85;;;8.98;;
36815;SDS011;71982;52.294;6.760;2023-11-19T18:59:23;29.20;;;9.30;;
36815;SDS011;71982;52.294;6.760;2023-11-19T19:02:00;28.75;;;9.70;;
36815;SDS011;71982;52.294;6.760;2023-11-19T19:04:28;27.90;;;8.73;;
36815;SDS011;71982;52.294;6.760;2023-11-19T19:07:12;23.20;;;8.65;;
36815;SDS011;71982;52.294;6.760;2023-11-19T19:09:44;19.42;;;7.95;;
36815;SDS011;71982;52.294;6.760;2023-11-19T19:12:17;26.65;;;8.38;;
36815;SDS011;71982;52.294;6.760;2023-11-19T19:14:48;20.05;;;8.13;;
36815;SDS011;71982;52.294;6.760;2023-11-19T19:17:26;23.98;;;7.20;;
36815;SDS011;71982;52.294;6.760;2023-11-19T19:19:59;19.25;;;7.15;;
36815;SDS011;71982;52.294;6.760;2023-11-19T19:22:34;19.63;;;7.70;;
36815;SDS011;71982;52.294;6.760;2023-11-19T19:25:07;21.77;;;7.55;;
36815;SDS011;71982;52.294;6.760;2023-11-19T19:27:45;23.52;;;7.43;;
36815;SDS011;71982;52.294;6.760;2023-11-19T19:30:18;18.63;;;7.22;;
36815;SDS011;71982;52.294;6.760;2023-11-19T19:32:49;37.88;;;16.45;;
36815;SDS011;71982;52.294;6.760;2023-11-19T19:35:25;60.53;;;23.58;;
36815;SDS011;71982;52.294;6.760;2023-11-19T19:38:07;33.97;;;9.95;;
36815;SDS011;71982;52.294;6.760;2023-11-19T19:40:34;18.20;;;7.93;;
36815;SDS011;71982;52.294;6.760;2023-11-19T19:43:07;23.88;;;8.75;;
36815;SDS011;71982;52.294;6.760;2023-11-19T19:45:41;16.77;;;8.45;;
36815;SDS011;71982;52.294;6.760;2023-11-19T19:48:20;18.55;;;7.70;;
36815;SDS011;71982;52.294;6.760;2023-11-19T19:50:51;18.77;;;7.88;;
36815;SDS011;71982;52.294;6.760;2023-11-19T19:53:22;22.77;;;8.27;;
36815;SDS011;71982;52.294;6.760;2023-11-19T19:58:27;23.95;;;8.73;;
36815;SDS011;71982;52.294;6.760;2023-11-19T20:00:54;15.13;;;7.07;;
36815;SDS011;71982;52.294;6.760;2023-11-19T20:03:20;18.08;;;8.10;;
36815;SDS011;71982;52.294;6.760;2023-11-19T20:05:47;12.52;;;6.25;;
36815;SDS011;71982;52.294;6.760;2023-11-19T20:08:14;19.33;;;7.55;;
36815;SDS011;71982;52.294;6.760;2023-11-19T20:10:42;13.40;;;5.80;;
36815;SDS011;71982;52.294;6.760;2023-11-19T20:13:09;15.45;;;6.90;;
36815;SDS011;71982;52.294;6.760;2023-11-19T20:15:37;14.50;;;6.10;;
36815;SDS011;71982;52.294;6.760;2023-11-19T20:18:04;17.75;;;8.20;;
36815;SDS011;71982;52.294;6.760;2023-11-19T20:20:31;10.35;;;6.00;;
36815;SDS011;71982;52.294;6.760;2023-11-19T20:23:01;11.30;;;6.10;;
36815;SDS011;71982;52.294;6.760;2023-11-19T20:25:28;17.13;;;6.90;;
36815;SDS011;71982;52.294;6.760;2023-11-19T20:27:56;15.50;;;6.40;;
36815;SDS011;71982;52.294;6.760;2023-11-19T20:30:23;14.68;;;6.82;;
36815;SDS011;71982;52.294;6.760;2023-11-19T20:32:50;18.02;;;6.22;;
36815;SDS011;71982;52.294;6.760;2023-11-19T20:35:16;13.13;;;6.25;;
36815;SDS011;71982;52.294;6.760;2023-11-19T20:37:43;15.50;;;5.82;;
36815;SDS011;71982;52.294;6.760;2023-11-19T20:40:10;13.75;;;5.43;;
36815;SDS011;71982;52.294;6.760;2023-11-19T20:42:38;14.57;;;7.20;;
36815;SDS011;71982;52.294;6.760;2023-11-19T20:45:07;11.43;;;5.40;;
36815;SDS011;71982;52.294;6.760;2023-11-19T20:47:34;11.50;;;6.25;;
36815;SDS011;71982;52.294;6.760;2023-11-19T20:50:02;16.17;;;6.35;;
36815;SDS011;71982;52.294;6.760;2023-11-19T20:52:32;12.10;;;5.95;;
36815;SDS011;71982;52.294;6.760;2023-11-19T20:54:59;11.98;;;5.93;;
36815;SDS011;71982;52.294;6.760;2023-11-19T20:57:27;17.80;;;8.07;;
36815;SDS011;71982;52.294;6.760;2023-11-19T20:59:54;15.20;;;6.57;;
36815;SDS011;71982;52.294;6.760;2023-11-19T21:02:22;16.17;;;6.65;;
36815;SDS011;71982;52.294;6.760;2023-11-19T21:04:49;15.90;;;6.30;;
36815;SDS011;71982;52.294;6.760;2023-11-19T21:07:15;13.02;;;6.47;;
36815;SDS011;71982;52.294;6.760;2023-11-19T21:09:42;11.82;;;6.60;;
36815;SDS011;71982;52.294;6.760;2023-11-19T21:12:09;15.45;;;7.07;;
36815;SDS011;71982;52.294;6.760;2023-11-19T21:14:36;13.20;;;7.28;;
36815;SDS011;71982;52.294;6.760;2023-11-19T21:17:03;11.05;;;6.53;;
36815;SDS011;71982;52.294;6.760;2023-11-19T21:19:32;11.70;;;7.03;;
36815;SDS011;71982;52.294;6.760;2023-11-19T21:21:58;11.73;;;5.93;;
36815;SDS011;71982;52.294;6.760;2023-11-19T21:24:25;16.50;;;7.00;;
36815;SDS011;71982;52.294;6.760;2023-11-19T21:26:53;15.07;;;6.90;;
36815;SDS011;71982;52.294;6.760;2023-11-19T21:29:19;14.80;;;8.32;;
36815;SDS011;71982;52.294;6.760;2023-11-19T21:31:46;10.05;;;6.32;;
36815;SDS011;71982;52.294;6.760;2023-11-19T21:34:14;12.63;;;6.20;;
36815;SDS011;71982;52.294;6.760;2023-11-19T21:36:42;10.73;;;6.63;;
36815;SDS011;71982;52.294;6.760;2023-11-19T21:39:08;12.18;;;6.20;;
36815;SDS011;71982;52.294;6.760;2023-11-19T21:41:37;14.20;;;6.30;;
36815;SDS011;71982;52.294;6.760;2023-11-19T21:44:04;12.48;;;7.30;;
36815;SDS011;71982;52.294;6.760;2023-11-19T21:46:31;13.63;;;5.70;;
36815;SDS011;71982;52.294;6.760;2023-11-19T21:48:58;14.70;;;7.03;;
36815;SDS011;71982;52.294;6.760;2023-11-19T21:51:25;17.90;;;6.43;;
36815;SDS011;71982;52.294;6.760;2023-11-19T21:53:53;12.48;;;5.65;;
36815;SDS011;71982;52.294;6.760;2023-11-19T21:56:20;12.98;;;6.05;;
36815;SDS011;71982;52.294;6.760;2023-11-19T21:58:47;13.75;;;5.90;;
36815;SDS011;71982;52.294;6.760;2023-11-19T22:01:13;13.65;;;6.10;;
36815;SDS011;71982;52.294;6.760;2023-11-19T22:03:41;17.40;;;7.15;;
36815;SDS011;71982;52.294;6.760;2023-11-19T22:06:08;13.13;;;5.65;;
36815;SDS011;71982;52.294;6.760;2023-11-19T22:08:35;15.00;;;5.90;;
36815;SDS011;71982;52.294;6.760;2023-11-19T22:11:03;12.18;;;5.78;;
36815;SDS011;71982;52.294;6.760;2023-11-19T22:13:30;11.20;;;5.22;;
36815;SDS011;71982;52.294;6.760;2023-11-19T22:16:00;11.38;;;5.47;;
36815;SDS011;71982;52.294;6.760;2023-11-19T22:18:26;14.55;;;5.30;;
36815;SDS011;71982;52.294;6.760;2023-11-19T22:20:53;20.45;;;6.55;;
36815;SDS011;71982;52.294;6.760;2023-11-19T22:23:20;15.45;;;6.45;;
36815;SDS011;71982;52.294;6.760;2023-11-19T22:25:47;16.85;;;6.82;;
36815;SDS011;71982;52.294;6.760;2023-11-19T22:28:15;11.95;;;6.00;;
36815;SDS011;71982;52.294;6.760;2023-11-19T22:30:42;16.15;;;5.80;;
36815;SDS011;71982;52.294;6.760;2023-11-19T22:33:09;17.17;;;5.85;;
36815;SDS011;71982;52.294;6.760;2023-11-19T22:35:36;17.65;;;5.95;;
36815;SDS011;71982;52.294;6.760;2023-11-19T22:38:03;17.52;;;5.90;;
36815;SDS011;71982;52.294;6.760;2023-11-19T22:40:30;16.48;;;5.72;;
36815;SDS011;71982;52.294;6.760;2023-11-19T22:42:57;17.42;;;6.22;;
36815;SDS011;71982;52.294;6.760;2023-11-19T22:45:25;13.90;;;5.80;;
36815;SDS011;71982;52.294;6.760;2023-11-19T22:47:52;19.70;;;7.32;;
36815;SDS011;71982;52.294;6.760;2023-11-19T22:50:18;21.20;;;6.50;;
36815;SDS011;71982;52.294;6.760;2023-11-19T22:52:45;17.85;;;6.10;;
36815;SDS011;71982;52.294;6.760;2023-11-19T22:55:12;18.08;;;5.97;;
36815;SDS011;71982;52.294;6.760;2023-11-19T22:57:38;20.40;;;5.30;;
36815;SDS011;71982;52.294;6.760;2023-11-19T23:00:06;15.32;;;5.10;;
36815;SDS011;71982;52.294;6.760;2023-11-19T23:02:36;15.38;;;5.65;;
36815;SDS011;71982;52.294;6.760;2023-11-19T23:05:03;18.70;;;6.22;;
36815;SDS011;71982;52.294;6.760;2023-11-19T23:07:32;17.35;;;4.65;;
36815;SDS011;71982;52.294;6.760;2023-11-19T23:09:59;16.10;;;4.68;;
36815;SDS011;71982;52.294;6.760;2023-11-19T23:12:25;17.17;;;4.60;;
36815;SDS011;71982;52.294;6.760;2023-11-19T23:14:52;14.98;;;4.18;;
36815;SDS011;71982;52.294;6.760;2023-11-19T23:17:24;17.15;;;4.68;;
36815;SDS011;71982;52.294;6.760;2023-11-19T23:19:53;16.00;;;4.82;;
36815;SDS011;71982;52.294;6.760;2023-11-19T23:22:20;14.05;;;4.30;;
36815;SDS011;71982;52.294;6.760;2023-11-19T23:24:47;22.30;;;4.55;;
36815;SDS011;71982;52.294;6.760;2023-11-19T23:27:14;18.85;;;4.60;;
36815;SDS011;71982;52.294;6.760;2023-11-19T23:29:41;15.60;;;4.55;;
36815;SDS011;71982;52.294;6.760;2023-11-19T23:32:08;15.15;;;4.05;;
36815;SDS011;71982;52.294;6.760;2023-11-19T23:34:35;18.48;;;4.03;;
36815;SDS011;71982;52.294;6.760;2023-11-19T23:37:03;19.95;;;5.95;;
36815;SDS011;71982;52.294;6.760;2023-11-19T23:39:30;22.83;;;5.13;;
36815;SDS011;71982;52.294;6.760;2023-11-19T23:41:57;22.88;;;4.68;;
36815;SDS011;71982;52.294;6.760;2023-11-19T23:44:23;15.70;;;4.80;;
36815;SDS011;71982;52.294;6.760;2023-11-19T23:46:51;27.67;;;5.93;;
36815;SDS011;71982;52.294;6.760;2023-11-19T23:49:18;25.20;;;5.13;;
36815;SDS011;71982;52.294;6.760;2023-11-19T23:51:45;17.30;;;4.68;;
36815;SDS011;71982;52.294;6.760;2023-11-19T23:54:13;24.85;;;5.05;;
36815;SDS011;71982;52.294;6.760;2023-11-19T23:56:39;25.35;;;5.90;;
36815;SDS011;71982;52.294;6.760;2023-11-19T23:59:06;25.13;;;4.72;;
